Time;durP1;ratioP1;P1;durP2;ratioP2;P2;SDS_P1;SDS_P2;PMS_P1;PMS_P2;Temp;Humidity;BMP_temperature;BMP_pressure;BME280_temperature;BME280_humidity;BME280_pressure;Samples;Min_cycle;Max_cycle;Signal;HPM_P1;HPM_P2
2021/10/31 00:00:14;;;;;;;0.30;0.30;;;16.10;79.00;;;;;;5103427;28;20055;-39
2021/10/31 00:02:40;;;;;;;0.35;0.32;;;16.10;79.00;;;;;;5103596;28;20092;-38
2021/10/31 00:05:07;;;;;;;0.30;0.30;;;16.10;78.90;;;;;;5103012;28;20033;-37
2021/10/31 00:07:33;;;;;;;0.52;0.43;;;16.10;79.00;;;;;;5102824;28;20136;-37
2021/10/31 00:09:59;;;;;;;0.20;0.20;;;16.10;79.00;;;;;;5103371;28;20028;-37
2021/10/31 00:12:26;;;;;;;0.30;0.30;;;16.10;79.00;;;;;;5102958;28;20047;-38
2021/10/31 00:14:52;;;;;;;0.30;0.30;;;16.10;78.90;;;;;;5103327;28;20042;-37
2021/10/31 00:17:20;;;;;;;0.40;0.40;;;16.10;79.00;;;;;;5102995;28;20099;-37
2021/10/31 00:19:46;;;;;;;0.70;0.45;;;16.10;79.00;;;;;;5103092;28;20040;-37
2021/10/31 00:22:13;;;;;;;0.30;0.30;;;16.10;79.00;;;;;;5103175;28;20028;-37
2021/10/31 00:24:39;;;;;;;0.20;0.20;;;16.10;79.00;;;;;;5102697;28;20332;-38
2021/10/31 00:27:05;;;;;;;0.45;0.35;;;16.10;79.00;;;;;;5103204;28;20028;-37
2021/10/31 00:29:31;;;;;;;0.35;0.30;;;16.10;79.00;;;;;;5103062;28;20035;-37
2021/10/31 00:31:57;;;;;;;0.20;0.20;;;16.10;79.00;;;;;;5103014;28;20132;-38
2021/10/31 00:34:23;;;;;;;0.40;0.40;;;16.10;79.00;;;;;;5102016;28;20028;-38
2021/10/31 00:36:50;;;;;;;0.55;0.40;;;16.10;79.10;;;;;;5102315;28;20032;-38
2021/10/31 00:39:16;;;;;;;1.00;0.30;;;16.10;79.10;;;;;;5102939;28;20068;-38
2021/10/31 00:41:42;;;;;;;0.47;0.32;;;16.10;79.10;;;;;;5102366;28;20086;-37
2021/10/31 00:44:08;;;;;;;0.32;0.32;;;16.10;79.10;;;;;;5102695;28;20036;-37
2021/10/31 00:46:34;;;;;;;0.40;0.20;;;16.10;79.00;;;;;;5102447;28;20029;-37
2021/10/31 00:49:00;;;;;;;0.40;0.40;;;16.10;79.00;;;;;;5102653;28;20106;-38
2021/10/31 00:51:27;;;;;;;0.38;0.38;;;16.10;79.10;;;;;;5102634;28;20034;-38
2021/10/31 00:53:54;;;;;;;0.30;0.30;;;16.10;79.10;;;;;;5101268;28;20078;-38
2021/10/31 00:56:22;;;;;;;0.35;0.35;;;16.10;79.10;;;;;;5102243;28;20032;-37
2021/10/31 00:58:48;;;;;;;0.40;0.40;;;16.10;79.10;;;;;;5101299;28;20036;-38
2021/10/31 01:01:15;;;;;;;0.55;0.30;;;16.10;79.10;;;;;;5086368;28;20051;-38
2021/10/31 01:03:41;;;;;;;0.45;0.30;;;16.10;79.10;;;;;;5082537;28;20029;-42
2021/10/31 01:06:32;;;;;;;0.30;0.30;;;16.10;79.10;;;;;;5091213;28;20091;-37
2021/10/31 01:09:10;;;;;;;0.50;0.30;;;16.10;79.10;;;;;;5106431;28;20028;-37
2021/10/31 01:11:57;;;;;;;1.85;0.30;;;16.10;79.10;;;;;;5098795;28;20108;-38
2021/10/31 01:14:48;;;;;;;0.32;0.28;;;16.00;79.00;;;;;;5106770;28;20087;-38
2021/10/31 01:17:25;;;;;;;0.28;0.22;;;16.00;79.10;;;;;;5106525;28;20028;-37
2021/10/31 01:20:16;;;;;;;0.63;0.45;;;16.00;79.10;;;;;;5106474;28;20103;-37
2021/10/31 01:22:58;;;;;;;0.85;0.30;;;16.00;79.10;;;;;;5090938;28;20024;-38
2021/10/31 01:26:00;;;;;;;0.47;0.40;;;16.00;79.10;;;;;;5087927;28;20469;-37
2021/10/31 01:28:46;;;;;;;0.20;0.20;;;16.00;79.10;;;;;;5003695;28;20525;-38
2021/10/31 01:31:28;;;;;;;0.22;0.22;;;16.00;79.10;;;;;;5003226;28;20026;-38
2021/10/31 01:34:12;;;;;;;0.30;0.30;;;16.00;79.10;;;;;;5008228;28;20042;-38
2021/10/31 01:37:13;;;;;;;0.30;0.30;;;16.00;79.10;;;;;;5006467;28;20097;-38
2021/10/31 01:40:02;;;;;;;0.43;0.40;;;16.00;79.10;;;;;;4990502;28;20537;-38
2021/10/31 01:42:47;;;;;;;0.30;0.28;;;16.00;79.10;;;;;;5023300;28;20056;-37
2021/10/31 01:45:43;;;;;;;0.40;0.30;;;16.00;79.00;;;;;;5009567;28;20498;-37
2021/10/31 01:48:30;;;;;;;0.35;0.30;;;16.00;79.10;;;;;;5006810;28;20026;-38
2021/10/31 01:51:00;;;;;;;0.30;0.30;;;16.00;79.10;;;;;;5023245;28;20037;-38
2021/10/31 01:53:47;;;;;;;0.20;0.20;;;16.00;79.10;;;;;;5007429;28;20028;-37
2021/10/31 01:56:16;;;;;;;0.28;0.22;;;16.00;79.10;;;;;;5008755;28;20030;-37
2021/10/31 01:58:46;;;;;;;0.32;0.30;;;16.00;79.10;;;;;;5006855;28;20683;-38
2021/10/31 02:01:14;;;;;;;0.30;0.30;;;16.00;79.10;;;;;;5006378;28;20100;-38
2021/10/31 02:03:40;;;;;;;0.30;0.30;;;16.00;79.10;;;;;;5022903;28;20033;-37
2021/10/31 02:06:07;;;;;;;0.85;0.30;;;16.00;79.10;;;;;;5092994;28;20079;-38
2021/10/31 02:08:34;;;;;;;0.30;0.30;;;16.00;79.10;;;;;;5085468;28;20039;-38
2021/10/31 02:11:00;;;;;;;0.40;0.40;;;16.00;79.10;;;;;;5091165;28;20123;-37
2021/10/31 02:13:27;;;;;;;0.30;0.30;;;16.00;79.10;;;;;;5087561;28;20067;-37
2021/10/31 02:15:53;;;;;;;0.40;0.30;;;16.00;79.10;;;;;;5103890;28;20051;-37
2021/10/31 02:18:20;;;;;;;0.30;0.30;;;16.00;79.10;;;;;;5086483;28;20058;-38
2021/10/31 02:20:47;;;;;;;0.70;0.35;;;16.00;79.10;;;;;;5104198;28;20027;-38
2021/10/31 02:23:13;;;;;;;0.30;0.20;;;16.00;79.10;;;;;;5105427;28;20039;-37
2021/10/31 02:25:40;;;;;;;0.30;0.30;;;16.00;79.10;;;;;;5084921;28;20038;-37
2021/10/31 02:28:06;;;;;;;0.30;0.30;;;16.00;79.20;;;;;;5104921;28;20024;-38
2021/10/31 02:30:32;;;;;;;0.20;0.20;;;16.00;79.10;;;;;;5105566;28;20032;-37
2021/10/31 02:32:58;;;;;;;0.30;0.30;;;16.00;79.20;;;;;;5105097;28;20024;-38
2021/10/31 02:35:24;;;;;;;0.30;0.30;;;16.00;79.10;;;;;;5104905;28;20043;-38
2021/10/31 02:37:51;;;;;;;0.28;0.25;;;16.00;79.10;;;;;;5104936;28;20063;-37
2021/10/31 02:40:19;;;;;;;0.20;0.20;;;16.00;79.10;;;;;;5105149;28;20040;-38
2021/10/31 02:42:45;;;;;;;0.50;0.30;;;16.00;79.10;;;;;;5084975;28;20028;-38
2021/10/31 02:45:11;;;;;;;0.50;0.40;;;16.00;79.20;;;;;;5084958;28;20020;-38
2021/10/31 02:47:53;;;;;;;0.30;0.30;;;15.90;79.10;;;;;;5083453;28;20040;-37
2021/10/31 02:50:28;;;;;;;0.30;0.30;;;16.00;79.20;;;;;;5083436;28;20063;-38
2021/10/31 02:53:24;;;;;;;0.30;0.30;;;16.00;79.20;;;;;;5083264;28;20021;-38
2021/10/31 02:56:18;;;;;;;0.22;0.22;;;15.90;79.10;;;;;;5084557;28;20512;-38
2021/10/31 02:59:06;;;;;;;0.25;0.25;;;15.90;79.10;;;;;;5084112;28;20096;-38
2021/10/31 03:01:32;;;;;;;0.30;0.30;;;15.90;79.10;;;;;;5090469;28;20032;-37
2021/10/31 03:03:59;;;;;;;0.30;0.30;;;15.90;79.10;;;;;;5086274;28;20024;-37
2021/10/31 03:06:25;;;;;;;0.30;0.20;;;15.90;79.10;;;;;;5103048;28;20035;-38
2021/10/31 03:08:51;;;;;;;0.30;0.30;;;15.90;79.10;;;;;;5099576;28;20020;-38
2021/10/31 03:11:19;;;;;;;0.30;0.30;;;15.90;79.20;;;;;;5104376;28;20048;-38
2021/10/31 03:13:46;;;;;;;0.30;0.30;;;15.90;79.10;;;;;;5104420;28;20028;-38
2021/10/31 03:16:12;;;;;;;0.40;0.40;;;15.90;79.20;;;;;;5103001;28;20028;-38
2021/10/31 03:18:38;;;;;;;0.25;0.25;;;15.90;79.10;;;;;;5104086;28;20107;-37
2021/10/31 03:21:04;;;;;;;0.40;0.32;;;15.90;79.10;;;;;;5104297;28;20032;-38
2021/10/31 03:23:30;;;;;;;0.30;0.30;;;15.90;79.10;;;;;;5104273;28;20032;-37
2021/10/31 03:25:56;;;;;;;0.50;0.32;;;15.90;79.20;;;;;;5104095;28;20186;-37
2021/10/31 03:28:23;;;;;;;0.20;0.20;;;15.90;79.10;;;;;;5103899;28;20021;-38
2021/10/31 03:30:49;;;;;;;0.20;0.20;;;15.90;79.10;;;;;;5103899;28;20032;-38
2021/10/31 03:33:15;;;;;;;0.40;0.30;;;15.90;79.20;;;;;;5104295;28;20217;-38
2021/10/31 03:35:42;;;;;;;0.30;0.30;;;15.90;79.20;;;;;;5103952;28;20034;-38
2021/10/31 03:38:08;;;;;;;0.60;0.40;;;15.90;79.20;;;;;;5103694;28;20035;-38
2021/10/31 03:40:34;;;;;;;0.55;0.22;;;15.90;79.20;;;;;;5104045;28;20620;-38
2021/10/31 03:43:00;;;;;;;0.55;0.40;;;15.90;79.20;;;;;;5103897;28;20049;-37
2021/10/31 03:45:27;;;;;;;0.20;0.20;;;15.90;79.10;;;;;;5103970;28;20036;-37
2021/10/31 03:47:53;;;;;;;1.20;0.40;;;15.90;79.20;;;;;;5103839;28;20028;-38
2021/10/31 03:50:23;;;;;;;0.47;0.30;;;15.90;79.20;;;;;;5104015;28;20103;-37
2021/10/31 03:52:49;;;;;;;0.30;0.20;;;15.90;79.20;;;;;;5103831;28;20249;-38
2021/10/31 03:55:16;;;;;;;0.20;0.20;;;15.90;79.20;;;;;;5103507;28;20036;-38
2021/10/31 03:57:42;;;;;;;0.40;0.30;;;15.90;79.20;;;;;;5103625;28;20028;-38
2021/10/31 04:00:13;;;;;;;0.68;0.30;;;15.90;79.30;;;;;;5102285;28;20781;-37
2021/10/31 04:02:39;;;;;;;0.60;0.30;;;15.90;79.20;;;;;;5103639;28;20028;-38
2021/10/31 04:05:06;;;;;;;0.50;0.22;;;15.90;79.20;;;;;;5103484;28;20058;-38
2021/10/31 04:07:32;;;;;;;0.30;0.25;;;15.90;79.20;;;;;;5102973;28;20043;-37
2021/10/31 04:09:58;;;;;;;0.20;0.20;;;15.90;79.20;;;;;;5103439;28;20032;-37
2021/10/31 04:12:25;;;;;;;0.40;0.38;;;15.90;79.20;;;;;;5103395;28;20055;-38
2021/10/31 04:14:51;;;;;;;0.30;0.30;;;15.90;79.20;;;;;;5085269;28;20024;-37
2021/10/31 04:17:17;;;;;;;0.30;0.20;;;15.90;79.30;;;;;;5103102;28;20036;-37
2021/10/31 04:19:43;;;;;;;0.20;0.20;;;15.90;79.20;;;;;;5102863;28;20031;-37
2021/10/31 04:22:09;;;;;;;0.50;0.32;;;15.80;79.10;;;;;;5074536;28;20048;-37
2021/10/31 04:24:35;;;;;;;0.35;0.28;;;15.80;79.20;;;;;;5062730;28;20028;-38
2021/10/31 04:27:02;;;;;;;2.05;0.30;;;15.80;79.20;;;;;;5080324;28;20493;-38
2021/10/31 04:29:28;;;;;;;0.20;0.20;;;15.80;79.20;;;;;;5102895;28;20031;-37
2021/10/31 04:31:54;;;;;;;1.13;0.40;;;15.80;79.20;;;;;;5092987;28;20031;-37
2021/10/31 04:34:21;;;;;;;0.95;0.20;;;15.80;79.20;;;;;;5082487;28;20032;-38
2021/10/31 04:36:48;;;;;;;0.30;0.25;;;15.80;79.20;;;;;;5082597;28;20021;-38
2021/10/31 04:39:14;;;;;;;0.30;0.30;;;15.80;79.20;;;;;;5082179;28;20047;-37
2021/10/31 04:41:44;;;;;;;0.65;0.38;;;15.80;79.20;;;;;;5075912;28;20050;-37
2021/10/31 04:44:10;;;;;;;0.22;0.20;;;15.80;79.20;;;;;;5103027;28;20032;-38
2021/10/31 04:46:36;;;;;;;0.32;0.20;;;15.80;79.20;;;;;;5102903;28;20045;-38
2021/10/31 04:49:02;;;;;;;0.30;0.30;;;15.80;79.20;;;;;;5102368;28;20032;-37
2021/10/31 04:51:28;;;;;;;0.30;0.30;;;15.80;79.20;;;;;;5102998;28;20031;-37
2021/10/31 04:53:54;;;;;;;0.30;0.30;;;15.80;79.20;;;;;;5102722;28;20047;-37
2021/10/31 04:56:24;;;;;;;1.15;0.40;;;15.80;79.20;;;;;;5102828;28;20039;-37
2021/10/31 04:58:53;;;;;;;0.20;0.20;;;15.80;79.20;;;;;;5102694;28;20050;-37
2021/10/31 05:01:20;;;;;;;0.43;0.30;;;15.80;79.20;;;;;;5097488;28;20051;-38
2021/10/31 05:03:46;;;;;;;0.40;0.30;;;15.80;79.20;;;;;;5064179;28;20024;-38
2021/10/31 05:06:13;;;;;;;0.22;0.22;;;15.80;79.20;;;;;;5082317;28;20117;-37
2021/10/31 05:08:39;;;;;;;0.30;0.30;;;15.80;79.20;;;;;;5064382;28;20031;-38
2021/10/31 05:11:07;;;;;;;0.50;0.30;;;15.80;79.20;;;;;;5086476;28;20043;-38
2021/10/31 05:13:34;;;;;;;0.20;0.20;;;15.80;79.20;;;;;;5102793;28;20054;-37
2021/10/31 05:16:00;;;;;;;0.30;0.30;;;15.80;79.20;;;;;;5102889;28;20103;-38
2021/10/31 05:18:26;;;;;;;0.32;0.30;;;15.80;79.30;;;;;;5102363;28;20024;-41
2021/10/31 05:20:52;;;;;;;1.50;0.30;;;15.80;79.20;;;;;;5102405;28;20032;-38
2021/10/31 05:23:18;;;;;;;0.22;0.20;;;15.80;80.00;;;;;;5102549;28;20078;-38
2021/10/31 05:25:44;;;;;;;0.20;0.20;;;15.80;79.20;;;;;;5102567;28;20020;-38
2021/10/31 05:28:11;;;;;;;0.40;0.40;;;15.80;79.20;;;;;;5102599;28;20534;-38
2021/10/31 05:30:37;;;;;;;0.32;0.30;;;15.80;79.30;;;;;;5102429;28;20036;-37
2021/10/31 05:33:04;;;;;;;0.95;0.45;;;15.80;79.20;;;;;;5102552;28;20020;-37
2021/10/31 05:35:31;;;;;;;0.30;0.30;;;15.80;79.20;;;;;;5102131;28;20035;-37
2021/10/31 05:37:58;;;;;;;0.40;0.40;;;15.80;79.30;;;;;;5102308;28;20036;-37
2021/10/31 05:40:25;;;;;;;0.40;0.20;;;15.80;79.30;;;;;;5102274;28;20580;-38
2021/10/31 05:42:51;;;;;;;0.60;0.40;;;15.80;79.30;;;;;;5102596;28;20028;-38
2021/10/31 05:45:17;;;;;;;0.28;0.28;;;15.80;79.30;;;;;;5102490;28;20028;-37
2021/10/31 05:47:43;;;;;;;0.50;0.40;;;15.80;79.30;;;;;;5102481;28;20032;-37
2021/10/31 05:50:12;;;;;;;0.50;0.40;;;15.80;79.30;;;;;;5102052;28;20502;-37
2021/10/31 05:52:39;;;;;;;0.20;0.20;;;15.80;79.30;;;;;;5104799;28;20020;-37
2021/10/31 05:55:06;;;;;;;0.60;0.40;;;15.80;79.30;;;;;;5104994;28;20095;-38
2021/10/31 05:57:32;;;;;;;0.25;0.25;;;15.80;79.30;;;;;;5104616;28;20634;-37
2021/10/31 05:59:58;;;;;;;0.30;0.30;;;15.80;79.30;;;;;;5105848;28;20040;-38
2021/10/31 06:02:24;;;;;;;0.40;0.38;;;15.80;79.30;;;;;;5105892;28;20066;-37
2021/10/31 06:04:51;;;;;;;0.30;0.30;;;15.80;79.30;;;;;;5105926;28;20099;-38
2021/10/31 06:07:17;;;;;;;0.20;0.20;;;15.80;79.30;;;;;;5105894;28;20489;-37
2021/10/31 06:09:43;;;;;;;0.57;0.30;;;15.80;79.30;;;;;;5105646;28;20032;-37
2021/10/31 06:12:10;;;;;;;0.38;0.30;;;15.80;79.30;;;;;;5105821;28;20092;-38
2021/10/31 06:14:36;;;;;;;1.15;0.32;;;15.80;79.30;;;;;;5105976;28;20123;-38
2021/10/31 06:17:03;;;;;;;0.40;0.30;;;15.80;79.40;;;;;;5086667;28;20024;-37
2021/10/31 06:19:30;;;;;;;0.30;0.30;;;15.80;79.40;;;;;;5082594;28;20071;-37
2021/10/31 06:21:57;;;;;;;0.40;0.30;;;15.70;79.30;;;;;;5085373;28;20035;-38
2021/10/31 06:24:23;;;;;;;0.30;0.30;;;15.70;79.30;;;;;;5085013;28;20108;-38
2021/10/31 06:26:49;;;;;;;0.30;0.30;;;15.70;79.30;;;;;;5105212;28;20056;-37
2021/10/31 06:29:15;;;;;;;0.38;0.38;;;15.70;79.30;;;;;;5105425;28;20097;-38
2021/10/31 06:31:41;;;;;;;0.30;0.30;;;15.70;79.30;;;;;;5096762;28;20033;-38
2021/10/31 06:34:07;;;;;;;0.40;0.40;;;15.70;79.30;;;;;;5085268;28;20086;-37
2021/10/31 06:36:34;;;;;;;0.50;0.40;;;15.70;79.40;;;;;;5084738;28;20036;-37
2021/10/31 06:39:00;;;;;;;0.63;0.30;;;15.70;79.30;;;;;;5084665;28;20036;-38
2021/10/31 06:41:26;;;;;;;0.47;0.30;;;15.80;79.50;;;;;;5084863;28;20046;-37
2021/10/31 06:43:52;;;;;;;0.30;0.20;;;15.70;79.50;;;;;;5084924;28;20037;-38
2021/10/31 06:46:19;;;;;;;0.30;0.30;;;15.70;79.40;;;;;;5085030;28;20132;-37
2021/10/31 06:48:45;;;;;;;0.68;0.32;;;15.70;79.40;;;;;;5084762;28;20020;-38
2021/10/31 06:51:11;;;;;;;1.55;0.35;;;15.70;79.40;;;;;;5084538;28;20035;-37
2021/10/31 06:53:37;;;;;;;0.38;0.20;;;15.70;79.40;;;;;;5084859;28;20039;-38
2021/10/31 06:56:04;;;;;;;0.40;0.40;;;15.70;79.50;;;;;;5084667;28;20063;-37
2021/10/31 06:58:30;;;;;;;0.35;0.35;;;15.70;79.40;;;;;;5084853;28;20114;-37
2021/10/31 07:00:56;;;;;;;0.50;0.40;;;15.70;79.50;;;;;;5084654;28;20024;-37
2021/10/31 07:03:22;;;;;;;0.47;0.40;;;15.70;79.50;;;;;;5084174;28;20038;-38
2021/10/31 07:05:48;;;;;;;0.40;0.40;;;15.70;79.50;;;;;;5099961;28;20033;-38
2021/10/31 07:08:14;;;;;;;0.40;0.35;;;15.70;79.50;;;;;;5084414;28;20527;-38
2021/10/31 07:10:40;;;;;;;0.80;0.40;;;15.70;79.50;;;;;;5087076;28;20036;-38
2021/10/31 07:13:06;;;;;;;0.40;0.30;;;15.70;79.50;;;;;;5104795;28;20495;-37
2021/10/31 07:15:32;;;;;;;0.30;0.30;;;15.70;79.50;;;;;;5104571;28;20028;-38
2021/10/31 07:17:59;;;;;;;0.47;0.40;;;15.70;79.50;;;;;;5104641;28;20016;-37
2021/10/31 07:20:25;;;;;;;0.77;0.40;;;15.70;79.50;;;;;;5104164;28;20043;-38
2021/10/31 07:22:54;;;;;;;0.40;0.30;;;15.60;79.50;;;;;;5104575;28;20053;-37
2021/10/31 07:25:23;;;;;;;0.47;0.40;;;15.60;79.50;;;;;;5104575;28;20084;-37
2021/10/31 07:27:51;;;;;;;0.40;0.40;;;15.60;79.50;;;;;;5104346;28;20111;-37
2021/10/31 07:30:18;;;;;;;0.55;0.40;;;15.60;79.50;;;;;;5104149;28;20056;-38
2021/10/31 07:32:44;;;;;;;0.50;0.50;;;15.60;79.50;;;;;;5087078;28;20046;-38
2021/10/31 07:35:10;;;;;;;0.20;0.20;;;15.60;79.50;;;;;;5084124;28;20028;-38
2021/10/31 07:37:36;;;;;;;0.40;0.40;;;15.60;79.50;;;;;;5065769;28;20029;-37
2021/10/31 07:40:06;;;;;;;0.40;0.40;;;15.60;79.50;;;;;;5083912;28;20036;-38
2021/10/31 07:42:32;;;;;;;0.43;0.40;;;15.60;79.50;;;;;;5102227;28;20115;-37
2021/10/31 07:44:58;;;;;;;0.38;0.38;;;15.60;79.50;;;;;;5104000;28;20024;-38
2021/10/31 07:47:25;;;;;;;0.30;0.30;;;15.60;79.50;;;;;;5085877;28;20020;-38
2021/10/31 07:49:51;;;;;;;0.27;0.27;;;15.60;79.60;;;;;;5103888;28;20032;-37
2021/10/31 07:52:20;;;;;;;0.32;0.32;;;15.60;79.50;;;;;;5085539;28;20618;-37
2021/10/31 07:54:47;;;;;;;0.40;0.40;;;15.60;79.50;;;;;;5103920;28;20039;-38
2021/10/31 07:57:14;;;;;;;0.43;0.43;;;15.60;79.50;;;;;;5103712;28;20028;-38
2021/10/31 07:59:40;;;;;;;0.70;0.30;;;15.60;79.50;;;;;;5103760;28;20040;-38
2021/10/31 08:02:07;;;;;;;0.40;0.40;;;15.50;79.40;;;;;;5056733;28;20565;-38
2021/10/31 08:04:33;;;;;;;0.30;0.30;;;15.50;79.40;;;;;;5083317;28;20028;-38
2021/10/31 08:06:59;;;;;;;1.45;0.40;;;15.50;79.40;;;;;;5083075;28;20617;-38
2021/10/31 08:09:25;;;;;;;0.30;0.30;;;15.50;79.40;;;;;;5083527;28;20056;-38
2021/10/31 08:11:51;;;;;;;0.55;0.32;;;15.50;79.40;;;;;;5095783;28;20052;-38
2021/10/31 08:14:17;;;;;;;0.50;0.47;;;15.50;79.50;;;;;;5102703;28;20028;-38
2021/10/31 08:16:44;;;;;;;0.40;0.30;;;15.50;79.40;;;;;;5103436;28;20016;-38
2021/10/31 08:19:10;;;;;;;0.30;0.30;;;15.60;79.50;;;;;;5101794;28;20032;-37
2021/10/31 08:21:37;;;;;;;0.57;0.32;;;15.60;80.20;;;;;;5064901;28;20044;-37
2021/10/31 08:24:07;;;;;;;0.60;0.50;;;15.60;80.10;;;;;;5063067;28;20711;-38
2021/10/31 08:26:33;;;;;;;0.57;0.50;;;15.60;79.90;;;;;;5062842;28;20048;-38
2021/10/31 08:29:01;;;;;;;0.50;0.37;;;15.60;79.90;;;;;;5063097;28;20032;-37
2021/10/31 08:31:30;;;;;;;1.33;0.50;;;15.60;79.80;;;;;;5069030;28;20257;-37
2021/10/31 08:34:01;;;;;;;0.40;0.40;;;15.60;79.80;;;;;;5082606;28;20051;-38
2021/10/31 08:36:27;;;;;;;0.50;0.50;;;15.60;79.80;;;;;;5085778;28;20033;-38
2021/10/31 08:38:54;;;;;;;0.50;0.50;;;15.60;79.70;;;;;;5064876;28;20037;-37
2021/10/31 08:41:26;;;;;;;0.40;0.40;;;15.60;79.80;;;;;;5072811;28;20024;-37
2021/10/31 08:43:53;;;;;;;1.48;0.30;;;15.50;79.70;;;;;;5103046;28;20107;-37
2021/10/31 08:46:19;;;;;;;1.02;0.47;;;15.50;79.60;;;;;;5103083;28;20024;-38
2021/10/31 08:48:46;;;;;;;0.32;0.32;;;15.50;79.50;;;;;;5084969;28;20058;-38
2021/10/31 08:51:13;;;;;;;0.30;0.30;;;15.50;79.60;;;;;;5102974;28;20055;-37
2021/10/31 08:53:39;;;;;;;0.38;0.35;;;15.50;79.60;;;;;;5102970;28;20051;-38
2021/10/31 08:56:10;;;;;;;0.43;0.40;;;15.50;79.60;;;;;;5102709;28;20038;-37
2021/10/31 08:58:36;;;;;;;0.90;0.70;;;15.50;79.50;;;;;;5102781;28;20036;-38
2021/10/31 09:01:02;;;;;;;0.40;0.40;;;15.50;79.50;;;;;;5099953;28;20028;-38
2021/10/31 09:03:28;;;;;;;0.30;0.30;;;15.50;79.50;;;;;;5082554;28;20485;-38
2021/10/31 09:05:55;;;;;;;0.60;0.50;;;15.60;80.60;;;;;;5082290;28;20029;-38
2021/10/31 09:08:21;;;;;;;0.40;0.40;;;15.60;80.70;;;;;;5082204;28;20021;-38
2021/10/31 09:10:49;;;;;;;1.23;0.52;;;15.70;80.60;;;;;;5083430;28;20308;-43
2021/10/31 09:13:15;;;;;;;0.45;0.40;;;15.70;80.40;;;;;;5102511;28;20576;-37
2021/10/31 09:15:42;;;;;;;0.50;0.50;;;15.70;80.20;;;;;;5102702;28;20032;-38
2021/10/31 09:18:08;;;;;;;0.40;0.40;;;15.60;80.10;;;;;;5102951;28;20806;-37
2021/10/31 09:20:34;;;;;;;0.47;0.47;;;15.60;80.10;;;;;;5102610;28;20043;-38
2021/10/31 09:23:01;;;;;;;0.50;0.50;;;15.60;80.10;;;;;;5102326;28;20028;-37
2021/10/31 09:25:27;;;;;;;;;;;15.60;80.10;;;;;;5103287;28;20028;-38
2021/10/31 09:27:54;;;;;;;0.30;0.30;;;15.60;80.00;;;;;;5106640;28;19915;-37
2021/10/31 09:30:22;;;;;;;0.65;0.40;;;15.60;80.00;;;;;;5106780;28;20031;-37
2021/10/31 09:32:49;;;;;;;0.40;0.40;;;15.60;79.90;;;;;;5106314;28;20088;-37
2021/10/31 09:35:20;;;;;;;0.40;0.40;;;15.60;79.90;;;;;;5106490;28;20027;-38
2021/10/31 09:37:48;;;;;;;0.50;0.50;;;15.60;79.90;;;;;;5090240;28;20032;-38
2021/10/31 09:40:14;;;;;;;0.73;0.40;;;15.60;79.80;;;;;;5086044;28;20046;-37
2021/10/31 09:42:41;;;;;;;0.30;0.30;;;15.60;79.80;;;;;;5105847;28;20020;-38
2021/10/31 09:45:08;;;;;;;0.30;0.30;;;15.60;79.70;;;;;;5106545;28;20460;-38
2021/10/31 09:47:34;;;;;;;0.43;0.43;;;15.60;79.70;;;;;;5106474;28;20078;-38
2021/10/31 09:50:00;;;;;;;0.45;0.43;;;15.60;79.70;;;;;;5106353;28;20047;-37
2021/10/31 09:52:27;;;;;;;0.40;0.40;;;15.60;79.70;;;;;;5104560;28;20100;-38
2021/10/31 09:54:54;;;;;;;0.38;0.38;;;15.60;79.60;;;;;;5104648;28;20029;-38
2021/10/31 09:57:21;;;;;;;0.40;0.40;;;15.60;79.70;;;;;;5106082;28;20043;-37
2021/10/31 09:59:56;;;;;;;0.95;0.32;;;15.60;79.70;;;;;;5103848;28;20032;-37
2021/10/31 10:02:48;;;;;;;0.40;0.40;;;15.50;79.60;;;;;;5105858;28;20036;-38
2021/10/31 10:05:25;;;;;;;0.50;0.50;;;15.50;79.60;;;;;;5105987;28;20489;-37
2021/10/31 10:08:12;;;;;;;0.40;0.40;;;15.50;79.60;;;;;;5085666;28;20036;-37
2021/10/31 10:10:56;;;;;;;0.40;0.40;;;15.50;79.60;;;;;;5088022;28;20033;-39
2021/10/31 10:13:30;;;;;;;0.40;0.40;;;15.60;79.70;;;;;;5105635;28;20031;-38
2021/10/31 10:16:22;;;;;;;0.65;0.47;;;15.50;79.70;;;;;;5105584;28;20077;-37
2021/10/31 10:18:49;;;;;;;0.40;0.40;;;15.50;79.70;;;;;;5083051;28;20063;-42
2021/10/31 10:21:35;;;;;;;0.30;0.30;;;15.50;79.70;;;;;;5085259;28;20115;-38
2021/10/31 10:24:11;;;;;;;0.55;0.40;;;15.50;79.60;;;;;;5097741;28;20032;-38
2021/10/31 10:26:41;;;;;;;0.40;0.35;;;15.50;79.70;;;;;;5101693;28;20032;-38
2021/10/31 10:29:18;;;;;;;0.65;0.38;;;15.50;79.70;;;;;;5105695;28;20032;-37
2021/10/31 10:31:49;;;;;;;1.30;0.40;;;15.50;79.70;;;;;;5105376;28;20028;-38
2021/10/31 10:34:15;;;;;;;0.35;0.35;;;15.50;80.40;;;;;;5105308;28;20081;-38
2021/10/31 10:36:46;;;;;;;0.30;0.30;;;15.60;80.50;;;;;;5096579;28;20025;-38
2021/10/31 10:39:17;;;;;;;0.75;0.50;;;15.60;80.30;;;;;;5084354;28;20064;-37
2021/10/31 10:41:50;;;;;;;0.30;0.30;;;15.60;80.30;;;;;;5096805;28;20024;-37
2021/10/31 10:44:22;;;;;;;0.63;0.40;;;15.60;80.20;;;;;;5105036;28;20437;-37
2021/10/31 10:46:50;;;;;;;0.47;0.40;;;15.60;80.20;;;;;;5105158;28;20027;-38
2021/10/31 10:49:18;;;;;;;0.40;0.40;;;15.50;80.10;;;;;;5105005;28;20048;-37
2021/10/31 10:51:45;;;;;;;0.30;0.30;;;15.50;80.00;;;;;;5103809;28;20078;-38
2021/10/31 10:54:13;;;;;;;0.30;0.30;;;15.50;80.00;;;;;;5104820;28;20509;-38
2021/10/31 10:57:05;;;;;;;0.40;0.38;;;15.50;80.00;;;;;;5104973;28;20024;-38
2021/10/31 10:59:32;;;;;;;0.45;0.40;;;15.50;80.00;;;;;;5104697;28;20046;-38
2021/10/31 11:02:08;;;;;;;0.73;0.30;;;15.50;79.90;;;;;;5104797;28;20050;-38
2021/10/31 11:04:35;;;;;;;0.30;0.30;;;15.50;79.90;;;;;;5104597;28;20036;-38
2021/10/31 11:07:03;;;;;;;0.20;0.20;;;15.50;79.90;;;;;;5104616;28;20050;-37
2021/10/31 11:09:45;;;;;;;0.40;0.32;;;15.50;79.90;;;;;;5103421;28;20032;-38
2021/10/31 11:12:31;;;;;;;0.30;0.25;;;15.50;79.90;;;;;;5104239;28;20480;-38
2021/10/31 11:15:03;;;;;;;0.30;0.30;;;15.50;79.80;;;;;;5104113;28;20074;-38
2021/10/31 11:17:29;;;;;;;0.35;0.35;;;15.50;79.80;;;;;;5104495;28;20103;-38
2021/10/31 11:19:56;;;;;;;0.40;0.40;;;15.50;79.90;;;;;;5104554;28;20028;-38
2021/10/31 11:22:23;;;;;;;0.50;0.50;;;15.50;80.00;;;;;;5104529;28;20024;-38
2021/10/31 11:24:49;;;;;;;0.45;0.45;;;15.50;80.80;;;;;;5104086;28;20802;-37
2021/10/31 11:27:20;;;;;;;0.40;0.38;;;15.60;81.00;;;;;;5104398;28;20092;-38
2021/10/31 11:29:47;;;;;;;0.40;0.40;;;15.70;80.80;;;;;;5104520;28;20078;-37
2021/10/31 11:32:13;;;;;;;0.50;0.50;;;15.60;80.50;;;;;;5104213;28;20032;-38
2021/10/31 11:34:48;;;;;;;0.40;0.40;;;15.60;80.40;;;;;;5104069;28;20551;-38
2021/10/31 11:37:16;;;;;;;0.55;0.50;;;15.60;80.40;;;;;;5090451;28;20032;-38
2021/10/31 11:39:43;;;;;;;0.50;0.50;;;15.60;80.40;;;;;;5065887;28;20047;-38
2021/10/31 11:42:09;;;;;;;0.50;0.50;;;15.60;80.40;;;;;;5099274;28;20080;-38
2021/10/31 11:45:04;;;;;;;0.50;0.50;;;15.60;80.30;;;;;;5103775;28;20032;-38
2021/10/31 11:47:31;;;;;;;0.50;0.50;;;15.60;80.30;;;;;;5103947;28;20032;-38
2021/10/31 11:50:20;;;;;;;0.85;0.35;;;15.50;80.30;;;;;;5102937;28;20024;-38
2021/10/31 11:52:53;;;;;;;0.40;0.40;;;15.50;80.20;;;;;;5104104;28;20111;-38
2021/10/31 11:55:28;;;;;;;0.40;0.40;;;15.50;80.20;;;;;;5103566;28;20024;-38
2021/10/31 11:58:00;;;;;;;0.40;0.40;;;15.50;80.10;;;;;;5103771;28;20042;-38
2021/10/31 12:00:27;;;;;;;0.45;0.38;;;15.50;80.10;;;;;;5103341;28;20070;-38
2021/10/31 12:02:55;;;;;;;0.50;0.40;;;15.50;80.10;;;;;;5102345;28;20024;-37
2021/10/31 12:05:39;;;;;;;0.47;0.47;;;15.50;80.00;;;;;;5103355;28;20034;-37
2021/10/31 12:08:05;;;;;;;1.20;0.40;;;15.50;80.70;;;;;;5103748;28;20054;-38
2021/10/31 12:10:34;;;;;;;0.50;0.50;;;15.50;80.00;;;;;;5103682;28;20035;-38
2021/10/31 12:13:13;;;;;;;0.60;0.47;;;15.50;80.00;;;;;;5102908;28;20143;-38
2021/10/31 12:15:55;;;;;;;0.63;0.40;;;15.50;80.00;;;;;;5103074;28;20028;-38
2021/10/31 12:18:26;;;;;;;0.30;0.30;;;15.60;80.80;;;;;;5103532;28;20024;-38
2021/10/31 12:20:54;;;;;;;0.70;0.60;;;15.70;81.00;;;;;;5082342;28;20066;-38
2021/10/31 12:23:22;;;;;;;0.50;0.50;;;15.60;80.70;;;;;;5087032;28;20034;-37
2021/10/31 12:25:48;;;;;;;0.98;0.57;;;15.60;80.50;;;;;;5082687;28;20028;-37
2021/10/31 12:28:41;;;;;;;0.82;0.55;;;15.60;80.50;;;;;;5083021;28;20048;-38
2021/10/31 12:31:27;;;;;;;0.63;0.45;;;15.60;80.40;;;;;;5091554;28;20039;-38
2021/10/31 12:34:13;;;;;;;0.75;0.50;;;15.60;80.40;;;;;;5103153;28;20020;-38
2021/10/31 12:36:41;;;;;;;0.50;0.47;;;15.60;80.40;;;;;;5102826;28;20035;-37
2021/10/31 12:39:32;;;;;;;0.60;0.50;;;15.50;80.30;;;;;;5103049;28;20111;-38
2021/10/31 12:42:17;;;;;;;0.90;0.60;;;15.50;80.20;;;;;;5083334;28;20070;-38
2021/10/31 12:45:05;;;;;;;0.45;0.40;;;15.50;80.30;;;;;;5102993;28;20107;-38
2021/10/31 12:47:55;;;;;;;0.60;0.60;;;15.50;80.20;;;;;;5102971;28;20035;-38
2021/10/31 12:50:26;;;;;;;0.30;0.30;;;15.50;80.20;;;;;;5103196;28;20028;-38
2021/10/31 12:53:06;;;;;;;0.40;0.40;;;15.50;80.20;;;;;;5102964;28;20035;-38
2021/10/31 12:55:32;;;;;;;0.30;0.30;;;15.50;80.10;;;;;;5101281;28;20052;-37
2021/10/31 12:58:04;;;;;;;0.73;0.40;;;15.50;80.00;;;;;;5101500;28;20020;-38
2021/10/31 13:00:32;;;;;;;0.35;0.30;;;15.50;80.00;;;;;;5102358;28;20056;-38